sensor_id;sensor_type;location;lat;lon;timestamp;pressure;altitude;pressure_sealevel;temperature;humidity
55068;BME280;40965;52.368;9.712;2022-09-27T00:01:11;98676.69;;;9.28;100.00
55068;BME280;40965;52.368;9.712;2022-09-27T00:03:40;98681.88;;;9.30;100.00
55068;BME280;40965;52.368;9.712;2022-09-27T00:06:24;98673.09;;;9.32;100.00
55068;BME280;40965;52.368;9.712;2022-09-27T00:08:52;98664.44;;;9.30;100.00
55068;BME280;40965;52.368;9.712;2022-09-27T00:11:31;98666.16;;;9.31;100.00
55068;BME280;40965;52.368;9.712;2022-09-27T00:14:00;98664.38;;;9.32;100.00
55068;BME280;40965;52.368;9.712;2022-09-27T00:16:34;98666.03;;;9.34;100.00
55068;BME280;40965;52.368;9.712;2022-09-27T00:19:13;98670.47;;;9.32;100.00
55068;BME280;40965;52.368;9.712;2022-09-27T00:21:45;98660.94;;;9.31;100.00
55068;BME280;40965;52.368;9.712;2022-09-27T00:24:16;98663.53;;;9.31;100.00
55068;BME280;40965;52.368;9.712;2022-09-27T00:26:48;98666.94;;;9.33;100.00
55068;BME280;40965;52.368;9.712;2022-09-27T00:29:18;98664.28;;;9.35;100.00
55068;BME280;40965;52.368;9.712;2022-09-27T00:31:46;98654.81;;;9.32;100.00
55068;BME280;40965;52.368;9.712;2022-09-27T00:34:17;98650.44;;;9.33;100.00
55068;BME280;40965;52.368;9.712;2022-09-27T00:36:46;98655.53;;;9.36;100.00
55068;BME280;40965;52.368;9.712;2022-09-27T00:39:17;98651.22;;;9.35;100.00
55068;BME280;40965;52.368;9.712;2022-09-27T00:41:49;98654.63;;;9.37;100.00
55068;BME280;40965;52.368;9.712;2022-09-27T00:47:09;98652.91;;;9.36;100.00
55068;BME280;40965;52.368;9.712;2022-09-27T00:49:52;98651.94;;;9.38;100.00
55068;BME280;40965;52.368;9.712;2022-09-27T00:52:42;98648.44;;;9.39;100.00
55068;BME280;40965;52.368;9.712;2022-09-27T00:55:23;98648.31;;;9.42;100.00
55068;BME280;40965;52.368;9.712;2022-09-27T00:58:05;98641.47;;;9.40;100.00
55068;BME280;40965;52.368;9.712;2022-09-27T01:00:35;98635.38;;;9.39;100.00
55068;BME280;40965;52.368;9.712;2022-09-27T01:03:08;98635.31;;;9.41;100.00
55068;BME280;40965;52.368;9.712;2022-09-27T01:05:39;98638.00;;;9.39;100.00
55068;BME280;40965;52.368;9.712;2022-09-27T01:08:06;98638.88;;;9.40;100.00
55068;BME280;40965;52.368;9.712;2022-09-27T01:10:45;98639.84;;;9.37;100.00
55068;BME280;40965;52.368;9.712;2022-09-27T01:13:34;98637.25;;;9.36;100.00
55068;BME280;40965;52.368;9.712;2022-09-27T01:16:34;98634.63;;;9.36;100.00
55068;BME280;40965;52.368;9.712;2022-09-27T01:22:06;98632.00;;;9.37;100.00
55068;BME280;40965;52.368;9.712;2022-09-27T01:28:21;98629.53;;;9.33;100.00
55068;BME280;40965;52.368;9.712;2022-09-27T01:31:23;98622.50;;;9.35;100.00
55068;BME280;40965;52.368;9.712;2022-09-27T01:37:30;98621.75;;;9.31;100.00
55068;BME280;40965;52.368;9.712;2022-09-27T01:40:19;98615.72;;;9.29;100.00
55068;BME280;40965;52.368;9.712;2022-09-27T01:43:16;98613.94;;;9.31;100.00
55068;BME280;40965;52.368;9.712;2022-09-27T01:45:52;98615.72;;;9.29;100.00
55068;BME280;40965;52.368;9.712;2022-09-27T01:48:41;98615.66;;;9.32;100.00
55068;BME280;40965;52.368;9.712;2022-09-27T01:51:13;98612.97;;;9.34;100.00
55068;BME280;40965;52.368;9.712;2022-09-27T01:53:46;98621.56;;;9.36;100.00
55068;BME280;40965;52.368;9.712;2022-09-27T01:56:21;98614.56;;;9.38;100.00
55068;BME280;40965;52.368;9.712;2022-09-27T01:59:01;98613.66;;;9.39;100.00
55068;BME280;40965;52.368;9.712;2022-09-27T02:01:34;98611.03;;;9.39;100.00
55068;BME280;40965;52.368;9.712;2022-09-27T02:04:09;98613.59;;;9.40;100.00
55068;BME280;40965;52.368;9.712;2022-09-27T02:06:44;98606.59;;;9.41;100.00
55068;BME280;40965;52.368;9.712;2022-09-27T02:09:22;98607.53;;;9.40;100.00
55068;BME280;40965;52.368;9.712;2022-09-27T02:11:58;98601.44;;;9.39;100.00
55068;BME280;40965;52.368;9.712;2022-09-27T02:14:41;98599.84;;;9.35;100.00
55068;BME280;40965;52.368;9.712;2022-09-27T02:20:22;98597.25;;;9.35;100.00
55068;BME280;40965;52.368;9.712;2022-09-27T02:26:37;98591.41;;;9.29;100.00
55068;BME280;40965;52.368;9.712;2022-09-27T02:29:08;98586.25;;;9.27;100.00
55068;BME280;40965;52.368;9.712;2022-09-27T02:31:38;98593.19;;;9.26;100.00
55068;BME280;40965;52.368;9.712;2022-09-27T02:34:13;98595.81;;;9.26;100.00
55068;BME280;40965;52.368;9.712;2022-09-27T02:36:45;98588.88;;;9.25;100.00
55068;BME280;40965;52.368;9.712;2022-09-27T02:39:12;98592.41;;;9.24;100.00
55068;BME280;40965;52.368;9.712;2022-09-27T02:41:41;98583.78;;;9.22;100.00
55068;BME280;40965;52.368;9.712;2022-09-27T02:44:10;98590.72;;;9.23;100.00
55068;BME280;40965;52.368;9.712;2022-09-27T02:46:59;98590.66;;;9.25;100.00
55068;BME280;40965;52.368;9.712;2022-09-27T03:01:41;98588.56;;;9.35;100.00
55068;BME280;40965;52.368;9.712;2022-09-27T03:04:33;98590.16;;;9.39;100.00
55068;BME280;40965;52.368;9.712;2022-09-27T03:07:05;98582.31;;;9.39;100.00
55068;BME280;40965;52.368;9.712;2022-09-27T03:09:44;98588.25;;;9.42;100.00
55068;BME280;40965;52.368;9.712;2022-09-27T03:12:15;98594.41;;;9.41;100.00
55068;BME280;40965;52.368;9.712;2022-09-27T03:14:52;98586.63;;;9.40;100.00
55068;BME280;40965;52.368;9.712;2022-09-27T03:17:21;98588.44;;;9.38;100.00
55068;BME280;40965;52.368;9.712;2022-09-27T03:19:51;98590.16;;;9.39;100.00
55068;BME280;40965;52.368;9.712;2022-09-27T03:22:19;98595.44;;;9.37;100.00
55068;BME280;40965;52.368;9.712;2022-09-27T03:24:49;98593.66;;;9.38;100.00
55068;BME280;40965;52.368;9.712;2022-09-27T03:27:18;98592.84;;;9.36;100.00
55068;BME280;40965;52.368;9.712;2022-09-27T03:29:45;98588.56;;;9.35;100.00
55068;BME280;40965;52.368;9.712;2022-09-27T03:32:14;98595.44;;;9.37;100.00
55068;BME280;40965;52.368;9.712;2022-09-27T03:34:42;98596.22;;;9.39;100.00
55068;BME280;40965;52.368;9.712;2022-09-27T03:37:10;98582.41;;;9.36;100.00
55068;BME280;40965;52.368;9.712;2022-09-27T03:39:38;98592.03;;;9.35;100.00
55068;BME280;40965;52.368;9.712;2022-09-27T03:42:05;98592.84;;;9.36;100.00
55068;BME280;40965;52.368;9.712;2022-09-27T03:44:43;98582.53;;;9.33;100.00
55068;BME280;40965;52.368;9.712;2022-09-27T03:47:10;98584.25;;;9.34;100.00
55068;BME280;40965;52.368;9.712;2022-09-27T03:49:37;98589.53;;;9.32;100.00
55068;BME280;40965;52.368;9.712;2022-09-27T03:52:03;98586.06;;;9.32;100.00
55068;BME280;40965;52.368;9.712;2022-09-27T03:54:30;98589.56;;;9.31;100.00
55068;BME280;40965;52.368;9.712;2022-09-27T03:56:58;98589.53;;;9.32;100.00
55068;BME280;40965;52.368;9.712;2022-09-27T03:59:28;98587.81;;;9.31;100.00
55068;BME280;40965;52.368;9.712;2022-09-27T04:01:55;98586.19;;;9.29;100.00
55068;BME280;40965;52.368;9.712;2022-09-27T04:04:24;98581.78;;;9.29;100.00
55068;BME280;40965;52.368;9.712;2022-09-27T04:06:51;98597.38;;;9.32;100.00
55068;BME280;40965;52.368;9.712;2022-09-27T04:09:19;98585.22;;;9.31;100.00
55068;BME280;40965;52.368;9.712;2022-09-27T04:11:46;98588.50;;;9.36;100.00
55068;BME280;40965;52.368;9.712;2022-09-27T04:14:16;98592.75;;;9.39;100.00
55068;BME280;40965;52.368;9.712;2022-09-27T04:16:43;98593.53;;;9.41;100.00
55068;BME280;40965;52.368;9.712;2022-09-27T04:19:10;98594.50;;;9.38;100.00
55068;BME280;40965;52.368;9.712;2022-09-27T04:21:40;98591.13;;;9.36;100.00
55068;BME280;40965;52.368;9.712;2022-09-27T04:24:09;98593.78;;;9.35;100.00
55068;BME280;40965;52.368;9.712;2022-09-27T04:26:36;98592.03;;;9.35;100.00
55068;BME280;40965;52.368;9.712;2022-09-27T04:29:04;98594.75;;;9.32;100.00
55068;BME280;40965;52.368;9.712;2022-09-27T04:31:34;98594.06;;;9.27;100.00
55068;BME280;40965;52.368;9.712;2022-09-27T04:34:05;98595.88;;;9.25;100.00
55068;BME280;40965;52.368;9.712;2022-09-27T04:36:32;98600.28;;;9.23;100.00
55068;BME280;40965;52.368;9.712;2022-09-27T04:39:00;98596.09;;;9.19;100.00
55068;BME280;40965;52.368;9.712;2022-09-27T04:41:31;98600.59;;;9.15;100.00
55068;BME280;40965;52.368;9.712;2022-09-27T04:44:06;98605.84;;;9.14;100.00
55068;BME280;40965;52.368;9.712;2022-09-27T04:46:32;98609.38;;;9.13;100.00
55068;BME280;40965;52.368;9.712;2022-09-27T04:49:01;98607.75;;;9.10;100.00
55068;BME280;40965;52.368;9.712;2022-09-27T04:51:28;98612.16;;;9.08;100.00
55068;BME280;40965;52.368;9.712;2022-09-27T04:53:55;98619.13;;;9.07;100.00
55068;BME280;40965;52.368;9.712;2022-09-27T04:56:23;98610.44;;;9.07;100.00
55068;BME280;40965;52.368;9.712;2022-09-27T04:58:52;98613.91;;;9.07;100.00
55068;BME280;40965;52.368;9.712;2022-09-27T05:01:19;98621.75;;;9.07;100.00
55068;BME280;40965;52.368;9.712;2022-09-27T05:03:47;98624.44;;;9.04;100.00
55068;BME280;40965;52.368;9.712;2022-09-27T05:06:17;98625.41;;;9.02;100.00
55068;BME280;40965;52.368;9.712;2022-09-27T05:08:49;98628.06;;;9.00;100.00
55068;BME280;40965;52.368;9.712;2022-09-27T05:11:23;98629.84;;;9.00;100.00
55068;BME280;40965;52.368;9.712;2022-09-27T05:13:51;98627.25;;;8.98;100.00
55068;BME280;40965;52.368;9.712;2022-09-27T05:16:18;98630.81;;;8.97;100.00
55068;BME280;40965;52.368;9.712;2022-09-27T05:18:52;98634.31;;;8.96;100.00
55068;BME280;40965;52.368;9.712;2022-09-27T05:21:22;98641.34;;;8.94;100.00
55068;BME280;40965;52.368;9.712;2022-09-27T05:23:52;98639.66;;;8.93;100.00
55068;BME280;40965;52.368;9.712;2022-09-27T05:26:19;98641.50;;;8.89;100.00
55068;BME280;40965;52.368;9.712;2022-09-27T05:28:48;98639.75;;;8.90;100.00
55068;BME280;40965;52.368;9.712;2022-09-27T05:31:15;98640.63;;;8.89;100.00
55068;BME280;40965;52.368;9.712;2022-09-27T05:33:42;98644.16;;;8.88;100.00
55068;BME280;40965;52.368;9.712;2022-09-27T05:36:09;98646.78;;;8.88;100.00
55068;BME280;40965;52.368;9.712;2022-09-27T05:38:36;98653.69;;;8.89;100.00
55068;BME280;40965;52.368;9.712;2022-09-27T05:41:06;98651.94;;;8.89;100.00
55068;BME280;40965;52.368;9.712;2022-09-27T05:43:33;98653.69;;;8.89;100.00
55068;BME280;40965;52.368;9.712;2022-09-27T05:46:00;98659.84;;;8.88;100.00
55068;BME280;40965;52.368;9.712;2022-09-27T05:48:29;98658.06;;;8.88;100.00
55068;BME280;40965;52.368;9.712;2022-09-27T05:50:56;98659.72;;;8.91;100.00
55068;BME280;40965;52.368;9.712;2022-09-27T05:53:23;98652.69;;;8.93;100.00
55068;BME280;40965;52.368;9.712;2022-09-27T05:55:51;98655.19;;;8.96;100.00
55068;BME280;40965;52.368;9.712;2022-09-27T05:58:17;98655.13;;;8.98;100.00
55068;BME280;40965;52.368;9.712;2022-09-27T06:00:46;98664.63;;;9.00;100.00
55068;BME280;40965;52.368;9.712;2022-09-27T06:03:13;98661.03;;;9.03;100.00
55068;BME280;40965;52.368;9.712;2022-09-27T06:05:41;98663.50;;;9.07;100.00
55068;BME280;40965;52.368;9.712;2022-09-27T06:08:11;98664.19;;;9.13;100.00
55068;BME280;40965;52.368;9.712;2022-09-27T06:10:39;98664.13;;;9.14;100.00
55068;BME280;40965;52.368;9.712;2022-09-27T06:13:09;98666.75;;;9.14;100.00
55068;BME280;40965;52.368;9.712;2022-09-27T06:15:39;98670.13;;;9.18;100.00
55068;BME280;40965;52.368;9.712;2022-09-27T06:18:09;98673.56;;;9.18;100.00
55068;BME280;40965;52.368;9.712;2022-09-27T06:20:45;98683.88;;;9.21;100.00
55068;BME280;40965;52.368;9.712;2022-09-27T06:23:15;98667.38;;;9.21;100.00
55068;BME280;40965;52.368;9.712;2022-09-27T06:25:45;98676.88;;;9.23;100.00
55068;BME280;40965;52.368;9.712;2022-09-27T06:28:13;98681.13;;;9.26;100.00
55068;BME280;40965;52.368;9.712;2022-09-27T06:30:42;98674.19;;;9.25;100.00
55068;BME280;40965;52.368;9.712;2022-09-27T06:33:17;98681.22;;;9.23;100.00
55068;BME280;40965;52.368;9.712;2022-09-27T06:35:48;98678.56;;;9.24;100.00
55068;BME280;40965;52.368;9.712;2022-09-27T06:38:16;98682.03;;;9.25;100.00
55068;BME280;40965;52.368;9.712;2022-09-27T06:40:45;98688.84;;;9.29;100.00
55068;BME280;40965;52.368;9.712;2022-09-27T06:43:19;98688.78;;;9.31;100.00
55068;BME280;40965;52.368;9.712;2022-09-27T06:45:46;98693.00;;;9.35;100.00
55068;BME280;40965;52.368;9.712;2022-09-27T06:48:14;98698.13;;;9.38;100.00
55068;BME280;40965;52.368;9.712;2022-09-27T06:50:43;98702.38;;;9.40;100.00
55068;BME280;40965;52.368;9.712;2022-09-27T06:53:12;98707.53;;;9.42;100.00
55068;BME280;40965;52.368;9.712;2022-09-27T06:55:40;98707.75;;;9.36;100.00
55068;BME280;40965;52.368;9.712;2022-09-27T06:58:10;98707.03;;;9.32;100.00
55068;BME280;40965;52.368;9.712;2022-09-27T07:00:55;98712.13;;;9.35;100.00
55068;BME280;40965;52.368;9.712;2022-09-27T07:03:23;98711.19;;;9.38;100.00
55068;BME280;40965;52.368;9.712;2022-09-27T07:05:57;98714.69;;;9.37;100.00
55068;BME280;40965;52.368;9.712;2022-09-27T07:08:27;98718.16;;;9.37;100.00
55068;BME280;40965;52.368;9.712;2022-09-27T07:10:55;98713.25;;;9.28;100.00
55068;BME280;40965;52.368;9.712;2022-09-27T07:13:28;98717.69;;;9.26;100.00
55068;BME280;40965;52.368;9.712;2022-09-27T07:16:01;98729.16;;;9.22;100.00
55068;BME280;40965;52.368;9.712;2022-09-27T07:18:28;98731.78;;;9.20;100.00
55068;BME280;40965;52.368;9.712;2022-09-27T07:20:58;98731.91;;;9.17;100.00
55068;BME280;40965;52.368;9.712;2022-09-27T07:23:25;98732.91;;;9.13;100.00
55068;BME280;40965;52.368;9.712;2022-09-27T07:25:53;98739.72;;;9.17;100.00
55068;BME280;40965;52.368;9.712;2022-09-27T07:28:22;98743.22;;;9.16;100.00
55068;BME280;40965;52.368;9.712;2022-09-27T07:30:56;98743.09;;;9.21;100.00
55068;BME280;40965;52.368;9.712;2022-09-27T07:33:29;98742.06;;;9.25;100.00
55068;BME280;40965;52.368;9.712;2022-09-27T07:35:56;98746.34;;;9.27;100.00
55068;BME280;40965;52.368;9.712;2022-09-27T07:38:25;98750.72;;;9.27;100.00
55068;BME280;40965;52.368;9.712;2022-09-27T07:40:53;98747.31;;;9.25;100.00
55068;BME280;40965;52.368;9.712;2022-09-27T07:43:20;98753.34;;;9.25;100.00
55068;BME280;40965;52.368;9.712;2022-09-27T07:45:47;98761.81;;;9.34;100.00
55068;BME280;40965;52.368;9.712;2022-09-27T07:48:15;98768.75;;;9.35;100.00
55068;BME280;40965;52.368;9.712;2022-09-27T07:50:44;98764.31;;;9.37;100.00
55068;BME280;40965;52.368;9.712;2022-09-27T07:53:11;98772.06;;;9.40;100.00
55068;BME280;40965;52.368;9.712;2022-09-27T07:55:39;98773.84;;;9.38;100.00
55068;BME280;40965;52.368;9.712;2022-09-27T07:58:09;98781.69;;;9.38;100.00
55068;BME280;40965;52.368;9.712;2022-09-27T08:00:37;98779.81;;;9.41;100.00
55068;BME280;40965;52.368;9.712;2022-09-27T08:03:07;98786.84;;;9.39;100.00
55068;BME280;40965;52.368;9.712;2022-09-27T08:05:38;98782.63;;;9.35;100.00
55068;BME280;40965;52.368;9.712;2022-09-27T08:08:06;98787.09;;;9.32;100.00
55068;BME280;40965;52.368;9.712;2022-09-27T08:10:34;98789.13;;;9.23;100.00
55068;BME280;40965;52.368;9.712;2022-09-27T08:13:01;98796.09;;;9.23;100.00
55068;BME280;40965;52.368;9.712;2022-09-27T08:15:33;98805.69;;;9.22;100.00
55068;BME280;40965;52.368;9.712;2022-09-27T08:18:02;98799.53;;;9.25;100.00
55068;BME280;40965;52.368;9.712;2022-09-27T08:20:29;98808.34;;;9.21;100.00
55068;BME280;40965;52.368;9.712;2022-09-27T08:22:57;98809.16;;;9.23;100.00
55068;BME280;40965;52.368;9.712;2022-09-27T08:25:28;98816.91;;;9.26;100.00
55068;BME280;40965;52.368;9.712;2022-09-27T08:27:56;98822.91;;;9.28;100.00
55068;BME280;40965;52.368;9.712;2022-09-27T08:30:24;98823.78;;;9.29;100.00
55068;BME280;40965;52.368;9.712;2022-09-27T08:33:03;98830.47;;;9.36;100.00
55068;BME280;40965;52.368;9.712;2022-09-27T08:35:31;98830.88;;;9.50;100.00
55068;BME280;40965;52.368;9.712;2022-09-27T08:37:58;98825.94;;;9.68;100.00
55068;BME280;40965;52.368;9.712;2022-09-27T08:40:50;98828.16;;;9.79;100.00
55068;BME280;40965;52.368;9.712;2022-09-27T08:43:48;98831.09;;;9.94;100.00
55068;BME280;40965;52.368;9.712;2022-09-27T08:46:35;98836.84;;;10.04;100.00
55068;BME280;40965;52.368;9.712;2022-09-27T08:49:26;98833.56;;;10.23;100.00
55068;BME280;40965;52.368;9.712;2022-09-27T08:51:56;98832.31;;;10.33;100.00
55068;BME280;40965;52.368;9.712;2022-09-27T08:54:30;98841.78;;;10.37;100.00
55068;BME280;40965;52.368;9.712;2022-09-27T08:57:19;98846.84;;;10.42;100.00
55068;BME280;40965;52.368;9.712;2022-09-27T08:59:54;98840.72;;;10.43;100.00
55068;BME280;40965;52.368;9.712;2022-09-27T09:02:27;98851.47;;;10.35;100.00
55068;BME280;40965;52.368;9.712;2022-09-27T09:04:57;98834.44;;;10.23;100.00
55068;BME280;40965;52.368;9.712;2022-09-27T09:07:35;98857.16;;;10.21;100.00
55068;BME280;40965;52.368;9.712;2022-09-27T09:13:58;98859.00;;;10.67;100.00
55068;BME280;40965;52.368;9.712;2022-09-27T09:16:43;98853.28;;;11.01;100.00
55068;BME280;40965;52.368;9.712;2022-09-27T09:19:23;98856.28;;;11.14;100.00
55068;BME280;40965;52.368;9.712;2022-09-27T09:22:15;98854.38;;;11.40;100.00
55068;BME280;40965;52.368;9.712;2022-09-27T09:25:06;98850.00;;;11.61;100.00
55068;BME280;40965;52.368;9.712;2022-09-27T09:27:51;98851.19;;;11.54;99.92
55068;BME280;40965;52.368;9.712;2022-09-27T09:31:19;98852.06;;;11.32;99.18
55068;BME280;40965;52.368;9.712;2022-09-27T09:34:08;98855.38;;;11.15;99.49
55068;BME280;40965;52.368;9.712;2022-09-27T09:37:02;98857.59;;;11.47;100.00
55068;BME280;40965;52.368;9.712;2022-09-27T09:39:47;98863.06;;;12.04;93.69
55068;BME280;40965;52.368;9.712;2022-09-27T09:42:36;98857.47;;;12.89;89.63
55068;BME280;40965;52.368;9.712;2022-09-27T09:45:44;98846.16;;;13.43;85.92
55068;BME280;40965;52.368;9.712;2022-09-27T09:48:22;98851.56;;;13.75;82.73
55068;BME280;40965;52.368;9.712;2022-09-27T09:50:53;98851.72;;;13.18;83.56
55068;BME280;40965;52.368;9.712;2022-09-27T09:53:50;98848.09;;;12.65;85.46
55068;BME280;40965;52.368;9.712;2022-09-27T09:56:41;98860.38;;;12.45;87.89
55068;BME280;40965;52.368;9.712;2022-09-27T09:59:28;98851.53;;;12.48;87.73
55068;BME280;40965;52.368;9.712;2022-09-27T10:02:02;98851.97;;;12.37;85.81
55068;BME280;40965;52.368;9.712;2022-09-27T10:05:03;98847.22;;;12.26;87.58
55068;BME280;40965;52.368;9.712;2022-09-27T10:07:34;98844.63;;;12.05;89.70
55068;BME280;40965;52.368;9.712;2022-09-27T10:10:07;98852.31;;;12.10;88.91
55068;BME280;40965;52.368;9.712;2022-09-27T10:12:39;98846.34;;;12.06;87.14
55068;BME280;40965;52.368;9.712;2022-09-27T10:15:11;98844.53;;;12.08;88.61
55068;BME280;40965;52.368;9.712;2022-09-27T10:17:44;98843.13;;;12.20;84.33
55068;BME280;40965;52.368;9.712;2022-09-27T10:20:38;98852.69;;;11.80;90.51
55068;BME280;40965;52.368;9.712;2022-09-27T10:23:15;98865.75;;;11.39;95.43
55068;BME280;40965;52.368;9.712;2022-09-27T10:25:52;98859.88;;;11.12;100.00
55068;BME280;40965;52.368;9.712;2022-09-27T10:28:48;98868.75;;;10.85;100.00
55068;BME280;40965;52.368;9.712;2022-09-27T10:31:18;98870.50;;;10.63;100.00
55068;BME280;40965;52.368;9.712;2022-09-27T10:34:37;98877.56;;;10.37;100.00
55068;BME280;40965;52.368;9.712;2022-09-27T10:37:22;98886.13;;;10.15;100.00
55068;BME280;40965;52.368;9.712;2022-09-27T10:39:50;98879.97;;;9.92;100.00
55068;BME280;40965;52.368;9.712;2022-09-27T10:42:32;98879.91;;;9.69;100.00
55068;BME280;40965;52.368;9.712;2022-09-27T10:45:24;98875.63;;;9.66;100.00
55068;BME280;40965;52.368;9.712;2022-09-27T10:47:53;98876.22;;;9.74;100.00
55068;BME280;40965;52.368;9.712;2022-09-27T10:50:28;98886.28;;;9.87;100.00
55068;BME280;40965;52.368;9.712;2022-09-27T10:55:38;98875.25;;;10.27;100.00
55068;BME280;40965;52.368;9.712;2022-09-27T10:58:05;98877.50;;;10.84;100.00
55068;BME280;40965;52.368;9.712;2022-09-27T11:00:59;98869.38;;;12.58;100.00
55068;BME280;40965;52.368;9.712;2022-09-27T11:03:44;98872.88;;;15.03;87.07
55068;BME280;40965;52.368;9.712;2022-09-27T11:06:28;98858.72;;;17.25;73.49
55068;BME280;40965;52.368;9.712;2022-09-27T11:09:10;98861.22;;;18.96;65.68
55068;BME280;40965;52.368;9.712;2022-09-27T11:11:44;98854.22;;;20.37;61.68
55068;BME280;40965;52.368;9.712;2022-09-27T11:14:22;98856.53;;;20.42;56.35
55068;BME280;40965;52.368;9.712;2022-09-27T11:17:16;98865.19;;;18.77;60.77
55068;BME280;40965;52.368;9.712;2022-09-27T11:19:56;98873.88;;;17.09;66.18
55068;BME280;40965;52.368;9.712;2022-09-27T11:23:08;98871.00;;;15.37;72.54
55068;BME280;40965;52.368;9.712;2022-09-27T11:29:22;98880.03;;;12.94;79.61
55068;BME280;40965;52.368;9.712;2022-09-27T11:38:23;98905.59;;;11.69;85.36
55068;BME280;40965;52.368;9.712;2022-09-27T11:44:06;98922.41;;;11.19;89.36
55068;BME280;40965;52.368;9.712;2022-09-27T11:50:16;98921.09;;;10.13;99.41
55068;BME280;40965;52.368;9.712;2022-09-27T12:03:03;98927.53;;;9.77;100.00
55068;BME280;40965;52.368;9.712;2022-09-27T12:06:10;98924.53;;;9.63;100.00
55068;BME280;40965;52.368;9.712;2022-09-27T12:09:03;98934.25;;;9.57;100.00
55068;BME280;40965;52.368;9.712;2022-09-27T12:17:29;98941.78;;;9.12;100.00
55068;BME280;40965;52.368;9.712;2022-09-27T12:20:26;98942.34;;;8.93;100.00
55068;BME280;40965;52.368;9.712;2022-09-27T12:25:39;98945.41;;;8.77;100.00
55068;BME280;40965;52.368;9.712;2022-09-27T12:28:28;98947.25;;;8.74;100.00
55068;BME280;40965;52.368;9.712;2022-09-27T12:31:42;98944.47;;;8.80;100.00
55068;BME280;40965;52.368;9.712;2022-09-27T12:34:32;98951.31;;;8.84;100.00
55068;BME280;40965;52.368;9.712;2022-09-27T12:37:32;98949.31;;;8.92;100.00
55068;BME280;40965;52.368;9.712;2022-09-27T12:40:17;98950.13;;;8.94;100.00
55068;BME280;40965;52.368;9.712;2022-09-27T12:42:53;98945.84;;;8.92;100.00
55068;BME280;40965;52.368;9.712;2022-09-27T12:51:49;98951.53;;;8.76;100.00
55068;BME280;40965;52.368;9.712;2022-09-27T13:03:16;98954.63;;;8.59;100.00
55068;BME280;40965;52.368;9.712;2022-09-27T13:09:17;98956.19;;;8.65;100.00
55068;BME280;40965;52.368;9.712;2022-09-27T13:15:00;98953.63;;;8.64;100.00
55068;BME280;40965;52.368;9.712;2022-09-27T13:17:47;98960.66;;;8.60;100.00
55068;BME280;40965;52.368;9.712;2022-09-27T13:23:03;98955.25;;;8.68;100.00
55068;BME280;40965;52.368;9.712;2022-09-27T13:25:50;98962.03;;;8.73;100.00
55068;BME280;40965;52.368;9.712;2022-09-27T13:34:43;98964.63;;;9.05;100.00
55068;BME280;40965;52.368;9.712;2022-09-27T13:40:32;98962.81;;;9.35;100.00
55068;BME280;40965;52.368;9.712;2022-09-27T13:43:18;98955.06;;;9.60;100.00
55068;BME280;40965;52.368;9.712;2022-09-27T13:45:57;98959.72;;;9.77;100.00
55068;BME280;40965;52.368;9.712;2022-09-27T13:51:41;98964.50;;;10.17;100.00
55068;BME280;40965;52.368;9.712;2022-09-27T13:57:52;98953.00;;;10.73;100.00
55068;BME280;40965;52.368;9.712;2022-09-27T14:00:43;98956.91;;;11.53;100.00
55068;BME280;40965;52.368;9.712;2022-09-27T14:06:02;98950.16;;;13.30;88.05
55068;BME280;40965;52.368;9.712;2022-09-27T14:08:33;98942.34;;;14.35;81.54
55068;BME280;40965;52.368;9.712;2022-09-27T14:11:14;98941.63;;;14.49;75.85
55068;BME280;40965;52.368;9.712;2022-09-27T14:13:48;98946.69;;;14.01;77.49
55068;BME280;40965;52.368;9.712;2022-09-27T14:16:19;98950.72;;;13.36;78.54
55068;BME280;40965;52.368;9.712;2022-09-27T14:18:54;98956.34;;;12.51;81.68
55068;BME280;40965;52.368;9.712;2022-09-27T14:21:36;98962.22;;;12.16;85.64
55068;BME280;40965;52.368;9.712;2022-09-27T14:24:22;98969.44;;;11.89;87.36
55068;BME280;40965;52.368;9.712;2022-09-27T14:27:42;98971.13;;;11.69;88.01
55068;BME280;40965;52.368;9.712;2022-09-27T14:30:19;98961.78;;;11.62;88.55
55068;BME280;40965;52.368;9.712;2022-09-27T14:32:50;98972.19;;;11.41;88.83
55068;BME280;40965;52.368;9.712;2022-09-27T14:35:21;98973.50;;;11.07;89.64
55068;BME280;40965;52.368;9.712;2022-09-27T14:38:10;98981.25;;;10.63;93.37
55068;BME280;40965;52.368;9.712;2022-09-27T14:40:42;98992.59;;;10.38;97.66
55068;BME280;40965;52.368;9.712;2022-09-27T14:43:26;98986.88;;;9.73;100.00
55068;BME280;40965;52.368;9.712;2022-09-27T14:46:23;99017.94;;;8.96;100.00
55068;BME280;40965;52.368;9.712;2022-09-27T14:48:53;99009.59;;;8.52;100.00
55068;BME280;40965;52.368;9.712;2022-09-27T14:51:27;99023.19;;;8.28;100.00
55068;BME280;40965;52.368;9.712;2022-09-27T14:53:58;99022.78;;;8.11;100.00
55068;BME280;40965;52.368;9.712;2022-09-27T14:56:34;99011.91;;;7.93;100.00
55068;BME280;40965;52.368;9.712;2022-09-27T14:59:11;99017.34;;;7.84;100.00
55068;BME280;40965;52.368;9.712;2022-09-27T15:01:50;99015.66;;;7.82;100.00
55068;BME280;40965;52.368;9.712;2022-09-27T15:04:20;99013.19;;;7.77;100.00
55068;BME280;40965;52.368;9.712;2022-09-27T15:06:59;99005.38;;;7.77;100.00
55068;BME280;40965;52.368;9.712;2022-09-27T15:09:27;99008.69;;;7.84;100.00
55068;BME280;40965;52.368;9.712;2022-09-27T15:11:57;99006.75;;;7.92;100.00
55068;BME280;40965;52.368;9.712;2022-09-27T15:14:25;99006.47;;;8.03;100.00
55068;BME280;40965;52.368;9.712;2022-09-27T15:16:57;99001.91;;;8.13;100.00
55068;BME280;40965;52.368;9.712;2022-09-27T15:19:31;99015.56;;;8.21;100.00
55068;BME280;40965;52.368;9.712;2022-09-27T15:22:34;99011.94;;;8.28;100.00
55068;BME280;40965;52.368;9.712;2022-09-27T15:25:06;99006.66;;;8.30;100.00
55068;BME280;40965;52.368;9.712;2022-09-27T15:27:49;99009.06;;;8.37;100.00
55068;BME280;40965;52.368;9.712;2022-09-27T15:30:24;99013.50;;;8.34;100.00
55068;BME280;40965;52.368;9.712;2022-09-27T15:33:38;98995.06;;;8.41;100.00
55068;BME280;40965;52.368;9.712;2022-09-27T15:36:09;99010.47;;;8.51;100.00
55068;BME280;40965;52.368;9.712;2022-09-27T15:38:45;99002.78;;;8.44;100.00
55068;BME280;40965;52.368;9.712;2022-09-27T15:41:19;99010.44;;;8.52;100.00